createdAt,value
2023-04-17T00:00:14.964Z,-396.00
2023-04-17T00:11:55.381Z,-324.00
2023-04-17T00:17:43.395Z,-324.00
2023-04-17T00:23:31.965Z,-324.00
2023-04-17T00:29:23.355Z,-360.00
2023-04-17T00:35:24.393Z,-360.00
2023-04-17T00:40:49.692Z,-324.00
2023-04-17T00:46:30.698Z,-324.00
2023-04-17T00:52:13.039Z,-324.00
2023-04-17T00:58:13.970Z,-324.00
2023-04-17T01:06:05.439Z,-324.00
2023-04-17T01:09:49.024Z,-324.00
2023-04-17T01:15:32.006Z,-360.00
2023-04-17T01:26:42.768Z,-360.00
2023-04-17T01:30:12.714Z,-360.00
2023-04-17T01:30:51.791Z,-396.00
2023-04-17T01:35:59.390Z,-360.00
2023-04-17T01:41:28.202Z,-360.00
2023-04-17T01:46:30.715Z,-396.00
2023-04-17T01:51:37.994Z,-360.00
2023-04-17T01:56:45.336Z,-360.00
2023-04-17T02:01:52.702Z,-360.00
2023-04-17T02:06:59.706Z,-360.00
2023-04-17T02:12:06.898Z,-360.00
2023-04-17T02:17:14.096Z,-360.00
2023-04-17T02:22:21.258Z,-360.00
2023-04-17T02:27:28.445Z,-360.00
2023-04-17T02:32:35.719Z,-360.00
2023-04-17T02:37:42.827Z,-396.00
2023-04-17T02:42:50.016Z,-324.00
2023-04-17T02:47:57.267Z,-396.00
2023-04-17T02:53:04.397Z,-360.00
2023-04-17T02:58:11.712Z,-396.00
2023-04-17T03:03:19.256Z,-396.00
2023-04-17T03:08:26.380Z,-360.00
2023-04-17T03:13:33.791Z,-360.00
2023-04-17T03:18:45.427Z,-360.00
2023-04-17T03:23:53.041Z,-396.00
2023-04-17T03:29:01.626Z,-360.00
2023-04-17T03:34:30.613Z,-396.00
2023-04-17T03:39:37.901Z,-360.00
2023-04-17T03:44:50.214Z,-396.00
2023-04-17T03:50:02.758Z,-360.00
2023-04-17T03:55:10.596Z,-360.00
2023-04-17T04:00:29.739Z,-360.00
2023-04-17T04:05:42.493Z,-360.00
2023-04-17T04:10:55.490Z,-396.00
2023-04-17T04:16:19.725Z,-360.00
2023-04-17T04:21:30.524Z,-360.00
2023-04-17T04:26:46.682Z,-360.00
2023-04-17T04:32:09.113Z,-396.00
2023-04-17T04:37:56.645Z,-324.00
2023-04-17T04:43:04.210Z,-324.00
2023-04-17T04:48:46.660Z,-324.00
2023-04-17T04:53:54.137Z,-324.00
2023-04-17T04:59:35.292Z,-360.00
2023-04-17T05:04:36.265Z,-288.00
2023-04-17T05:09:44.177Z,-288.00
2023-04-17T05:15:25.899Z,-288.00
2023-04-17T05:20:57.470Z,-252.00
2023-04-17T05:26:10.209Z,-324.00
2023-04-17T05:31:59.461Z,-252.00
2023-04-17T05:37:12.106Z,-324.00
2023-04-17T05:42:33.908Z,-288.00
2023-04-17T05:48:17.440Z,-216.00
2023-04-17T05:54:04.622Z,-216.00
2023-04-17T05:59:47.661Z,-252.00
2023-04-17T06:05:48.184Z,-252.00
2023-04-17T06:11:18.633Z,-288.00
2023-04-17T06:16:18.637Z,-252.00
2023-04-17T06:21:26.134Z,-252.00
2023-04-17T06:26:36.511Z,-216.00
2023-04-17T06:31:42.263Z,-216.00
2023-04-17T06:36:51.514Z,-180.00
2023-04-17T06:41:58.940Z,-180.00
2023-04-17T06:47:12.418Z,-144.00
2023-04-17T06:52:21.125Z,-108.00
2023-04-17T06:57:28.771Z,-72.00
2023-04-17T07:02:37.253Z,-72.00
2023-04-17T07:07:44.711Z,25452.00
2023-04-17T07:12:51.988Z,24516.00
2023-04-17T07:17:59.522Z,25020.00
2023-04-17T07:23:06.709Z,24012.00
2023-04-17T07:28:14.040Z,24408.00
2023-04-17T07:33:21.361Z,23580.00
2023-04-17T07:38:28.694Z,24840.00
2023-04-17T07:43:35.985Z,25164.00
2023-04-17T07:48:43.512Z,25272.00
2023-04-17T07:53:50.742Z,23328.00
2023-04-17T07:58:58.129Z,22140.00
2023-04-17T08:04:05.911Z,21240.00
2023-04-17T08:09:13.500Z,21528.00
2023-04-17T08:14:20.319Z,22284.00
2023-04-17T08:19:27.749Z,22680.00
2023-04-17T08:24:35.093Z,21780.00
2023-04-17T08:29:42.280Z,23184.00
2023-04-17T08:34:49.579Z,25272.00
2023-04-17T08:39:56.676Z,25020.00
2023-04-17T08:45:03.893Z,23364.00
2023-04-17T08:50:11.110Z,16956.00
2023-04-17T08:55:18.356Z,16632.00
2023-04-17T09:00:25.554Z,17208.00
2023-04-17T09:05:32.956Z,19944.00
2023-04-17T09:10:39.996Z,19764.00
2023-04-17T09:15:47.228Z,24948.00
2023-04-17T09:20:54.438Z,22284.00
2023-04-17T09:26:01.572Z,25272.00
2023-04-17T09:31:09.477Z,26280.00
2023-04-17T09:36:16.066Z,26100.00
2023-04-17T09:41:23.165Z,26856.00
2023-04-17T09:46:30.442Z,20340.00
2023-04-17T09:51:37.970Z,19764.00
2023-04-17T09:56:45.092Z,21348.00
2023-04-17T10:01:52.557Z,25848.00
2023-04-17T10:06:59.674Z,22140.00
2023-04-17T10:12:06.816Z,22212.00
2023-04-17T10:17:14.115Z,16920.00
2023-04-17T10:22:21.441Z,17532.00
2023-04-17T10:27:28.639Z,20412.00
2023-04-17T10:32:35.930Z,19116.00
2023-04-17T10:37:43.285Z,24120.00
2023-04-17T10:42:50.431Z,24804.00
2023-04-17T10:47:57.734Z,16920.00
2023-04-17T10:53:04.923Z,23184.00
2023-04-17T10:58:12.077Z,25056.00
2023-04-17T11:03:19.428Z,24660.00
2023-04-17T11:08:26.572Z,25740.00
2023-04-17T11:13:33.755Z,26928.00
2023-04-17T11:18:41.123Z,26064.00
2023-04-17T11:23:48.336Z,21276.00
2023-04-17T11:28:55.493Z,20952.00
2023-04-17T11:34:02.902Z,19008.00
2023-04-17T11:39:10.174Z,22968.00
2023-04-17T11:44:17.368Z,26784.00
2023-04-17T11:49:24.560Z,26352.00
2023-04-17T11:54:31.756Z,24444.00
2023-04-17T11:59:38.917Z,21348.00
2023-04-17T12:04:46.346Z,17928.00
2023-04-17T12:09:53.316Z,17568.00
2023-04-17T12:15:00.497Z,20880.00
2023-04-17T12:20:07.756Z,20952.00
2023-04-17T12:25:15.094Z,19368.00
2023-04-17T12:30:22.223Z,18432.00
2023-04-17T12:35:29.424Z,18792.00
2023-04-17T12:40:36.713Z,19008.00
2023-04-17T12:45:43.917Z,17964.00
2023-04-17T12:50:51.169Z,21312.00
2023-04-17T12:55:58.395Z,22392.00
2023-04-17T13:01:05.660Z,24804.00
2023-04-17T13:06:12.866Z,20376.00
2023-04-17T13:11:20.258Z,18396.00
2023-04-17T13:16:27.441Z,19224.00
2023-04-17T13:21:34.584Z,19692.00
2023-04-17T13:26:41.803Z,20304.00
2023-04-17T13:31:49.057Z,19548.00
2023-04-17T13:36:56.367Z,20700.00
2023-04-17T13:42:03.642Z,21996.00
2023-04-17T13:47:10.763Z,19224.00
2023-04-17T13:52:17.985Z,15228.00
2023-04-17T13:57:25.353Z,20844.00
2023-04-17T14:02:32.711Z,17460.00
2023-04-17T14:07:39.904Z,24264.00
2023-04-17T14:12:47.122Z,24444.00
2023-04-17T14:17:54.381Z,22104.00
2023-04-17T14:23:01.690Z,20232.00
2023-04-17T14:28:08.896Z,19764.00
2023-04-17T14:33:16.069Z,20340.00
2023-04-17T14:38:23.305Z,22284.00
2023-04-17T14:43:30.567Z,23328.00
2023-04-17T14:48:48.031Z,20052.00
2023-04-17T14:53:44.886Z,18360.00
2023-04-17T14:58:52.110Z,14004.00
2023-04-17T15:03:59.446Z,15300.00
2023-04-17T15:09:06.507Z,13644.00
2023-04-17T15:14:13.808Z,15660.00
2023-04-17T15:19:21.028Z,16344.00
2023-04-17T15:24:28.200Z,15948.00
2023-04-17T15:29:35.439Z,19476.00
2023-04-17T15:34:42.585Z,19872.00
2023-04-17T15:39:49.767Z,20952.00
2023-04-17T15:44:56.982Z,22248.00
2023-04-17T15:50:04.126Z,21744.00
2023-04-17T15:55:11.517Z,21816.00
2023-04-17T16:00:18.796Z,20376.00
2023-04-17T16:05:25.910Z,18468.00
2023-04-17T16:10:33.084Z,15732.00
2023-04-17T16:15:40.347Z,15840.00
2023-04-17T16:20:47.538Z,18180.00
2023-04-17T16:25:54.740Z,17676.00
2023-04-17T16:31:01.982Z,17316.00
2023-04-17T16:36:09.098Z,16344.00
2023-04-17T16:41:16.279Z,14940.00
2023-04-17T16:46:31.822Z,13536.00
2023-04-17T16:51:30.668Z,13644.00
2023-04-17T16:56:37.921Z,15264.00
2023-04-17T17:01:45.301Z,14436.00
2023-04-17T17:06:52.514Z,13104.00
2023-04-17T17:11:59.698Z,10656.00
2023-04-17T17:17:07.026Z,10584.00
2023-04-17T17:22:14.060Z,9072.00
2023-04-17T17:27:21.233Z,7740.00
2023-04-17T17:32:28.547Z,5976.00
2023-04-17T17:37:35.662Z,5724.00
2023-04-17T17:42:42.834Z,4968.00
2023-04-17T17:47:51.668Z,10116.00
2023-04-17T17:52:59.231Z,9540.00
2023-04-17T17:58:06.739Z,8964.00
2023-04-17T18:03:14.372Z,8496.00
2023-04-17T18:08:21.458Z,8172.00
2023-04-17T18:13:28.906Z,7812.00
2023-04-17T18:18:36.510Z,7524.00
2023-04-17T18:23:43.932Z,7308.00
2023-04-17T18:28:51.657Z,7308.00
2023-04-17T18:33:59.284Z,7200.00
2023-04-17T18:39:06.980Z,7200.00
2023-04-17T18:44:14.812Z,7200.00
2023-04-17T18:49:22.356Z,7128.00
2023-04-17T18:54:30.054Z,7020.00
2023-04-17T18:59:37.757Z,7164.00
2023-04-17T19:04:45.755Z,7020.00
2023-04-17T19:09:53.243Z,7128.00
2023-04-17T19:15:01.557Z,7164.00
2023-04-17T19:20:09.059Z,7956.00
2023-04-17T19:25:16.753Z,8100.00
2023-04-17T19:30:24.497Z,8208.00
2023-04-17T19:35:31.912Z,8172.00
2023-04-17T19:40:39.384Z,8172.00
2023-04-17T19:45:47.165Z,8172.00
2023-04-17T19:50:54.830Z,8136.00
2023-04-17T19:56:02.421Z,8244.00
2023-04-17T20:01:10.187Z,8316.00
2023-04-17T20:06:17.892Z,8136.00
2023-04-17T20:11:25.240Z,8244.00
2023-04-17T20:16:32.681Z,8244.00
2023-04-17T20:21:40.342Z,8136.00
2023-04-17T20:26:47.911Z,8100.00
2023-04-17T20:31:55.283Z,8172.00
2023-04-17T20:37:02.856Z,8136.00
2023-04-17T20:42:11.580Z,8172.00
2023-04-17T20:47:19.051Z,8064.00
2023-04-17T20:52:26.366Z,7992.00
2023-04-17T20:57:33.740Z,8028.00
2023-04-17T21:02:41.214Z,7992.00
2023-04-17T21:07:50.132Z,7956.00
2023-04-17T21:12:55.591Z,8064.00
2023-04-17T21:18:02.974Z,7956.00
2023-04-17T21:23:10.268Z,8064.00
2023-04-17T21:28:17.537Z,8064.00
2023-04-17T21:33:24.842Z,7956.00
2023-04-17T21:38:32.127Z,7992.00
2023-04-17T21:43:39.399Z,7992.00
2023-04-17T21:48:46.581Z,8028.00
2023-04-17T21:53:53.796Z,8064.00
2023-04-17T21:59:01.088Z,7920.00
2023-04-17T22:04:08.365Z,7884.00
2023-04-17T22:09:16.506Z,8172.00
2023-04-17T22:14:23.716Z,8208.00
2023-04-17T22:19:30.998Z,8136.00
2023-04-17T22:24:38.362Z,8136.00
2023-04-17T22:29:45.570Z,8208.00
2023-04-17T22:34:52.872Z,8064.00
2023-04-17T22:40:10.225Z,900.00
2023-04-17T22:45:26.048Z,-360.00
2023-04-17T22:50:37.909Z,-360.00
2023-04-17T22:56:15.764Z,-396.00
2023-04-17T23:01:44.136Z,-324.00
2023-04-17T23:07:31.696Z,-360.00
2023-04-17T23:12:48.598Z,-360.00
2023-04-17T23:23:17.310Z,-396.00
2023-04-17T23:29:29.470Z,-360.00
2023-04-17T23:30:37.225Z,-360.00
2023-04-17T23:33:45.994Z,-360.00
2023-04-17T23:39:35.496Z,-324.00
2023-04-17T23:44:47.068Z,-360.00
2023-04-17T23:49:59.409Z,-360.00
2023-04-17T23:55:15.217Z,-396.00
